sensor_id;sensor_type;location;lat;lon;timestamp;P1;durP1;ratioP1;P2;durP2;ratioP2
18695;SDS011;22617;43.690;27.956;2022-07-11T00:02:43;8.20;;;5.55;;
18695;SDS011;22617;43.690;27.956;2022-07-11T00:07:49;7.67;;;5.70;;
18695;SDS011;22617;43.690;27.956;2022-07-11T00:12:53;6.10;;;5.25;;
18695;SDS011;22617;43.690;27.956;2022-07-11T00:17:57;9.55;;;5.70;;
18695;SDS011;22617;43.690;27.956;2022-07-11T00:23:03;6.32;;;5.40;;
18695;SDS011;22617;43.690;27.956;2022-07-11T00:28:07;6.80;;;5.70;;
18695;SDS011;22617;43.690;27.956;2022-07-11T00:33:11;7.93;;;5.88;;
18695;SDS011;22617;43.690;27.956;2022-07-11T00:38:17;6.80;;;5.70;;
18695;SDS011;22617;43.690;27.956;2022-07-11T00:43:28;8.15;;;5.65;;
18695;SDS011;22617;43.690;27.956;2022-07-11T00:48:33;8.75;;;6.10;;
18695;SDS011;22617;43.690;27.956;2022-07-11T00:53:40;6.38;;;5.78;;
18695;SDS011;22617;43.690;27.956;2022-07-11T00:58:45;6.63;;;5.90;;
18695;SDS011;22617;43.690;27.956;2022-07-11T01:03:50;8.15;;;5.53;;
18695;SDS011;22617;43.690;27.956;2022-07-11T01:08:56;11.75;;;6.10;;
18695;SDS011;22617;43.690;27.956;2022-07-11T01:14:00;8.57;;;6.10;;
18695;SDS011;22617;43.690;27.956;2022-07-11T01:19:05;8.67;;;6.40;;
18695;SDS011;22617;43.690;27.956;2022-07-11T01:24:10;9.23;;;6.73;;
18695;SDS011;22617;43.690;27.956;2022-07-11T01:29:20;8.25;;;6.50;;
18695;SDS011;22617;43.690;27.956;2022-07-11T01:34:24;9.37;;;6.40;;
18695;SDS011;22617;43.690;27.956;2022-07-11T01:39:30;8.33;;;6.03;;
18695;SDS011;22617;43.690;27.956;2022-07-11T01:44:34;8.93;;;5.95;;
18695;SDS011;22617;43.690;27.956;2022-07-11T01:49:38;8.57;;;6.22;;
18695;SDS011;22617;43.690;27.956;2022-07-11T01:54:44;9.25;;;6.10;;
18695;SDS011;22617;43.690;27.956;2022-07-11T01:59:48;8.45;;;6.13;;
18695;SDS011;22617;43.690;27.956;2022-07-11T02:04:52;9.70;;;6.03;;
18695;SDS011;22617;43.690;27.956;2022-07-11T02:09:58;8.67;;;5.80;;
18695;SDS011;22617;43.690;27.956;2022-07-11T02:15:03;7.00;;;5.95;;
18695;SDS011;22617;43.690;27.956;2022-07-11T02:20:08;8.63;;;5.60;;
18695;SDS011;22617;43.690;27.956;2022-07-11T02:25:20;8.75;;;5.75;;
18695;SDS011;22617;43.690;27.956;2022-07-11T02:30:24;7.82;;;5.47;;
18695;SDS011;22617;43.690;27.956;2022-07-11T02:35:29;8.20;;;5.57;;
18695;SDS011;22617;43.690;27.956;2022-07-11T02:40:34;7.18;;;5.95;;
18695;SDS011;22617;43.690;27.956;2022-07-11T02:45:39;6.68;;;5.38;;
18695;SDS011;22617;43.690;27.956;2022-07-11T02:50:43;7.53;;;6.10;;
18695;SDS011;22617;43.690;27.956;2022-07-11T02:55:49;6.28;;;5.43;;
18695;SDS011;22617;43.690;27.956;2022-07-11T03:00:53;6.10;;;5.30;;
18695;SDS011;22617;43.690;27.956;2022-07-11T03:05:57;6.95;;;5.70;;
18695;SDS011;22617;43.690;27.956;2022-07-11T03:11:03;8.13;;;5.97;;
18695;SDS011;22617;43.690;27.956;2022-07-11T03:16:08;7.33;;;5.90;;
18695;SDS011;22617;43.690;27.956;2022-07-11T03:21:12;7.50;;;5.57;;
18695;SDS011;22617;43.690;27.956;2022-07-11T03:26:18;9.00;;;5.78;;
18695;SDS011;22617;43.690;27.956;2022-07-11T03:31:23;6.97;;;5.80;;
18695;SDS011;22617;43.690;27.956;2022-07-11T03:36:27;10.00;;;5.80;;
18695;SDS011;22617;43.690;27.956;2022-07-11T03:41:32;9.45;;;5.97;;
18695;SDS011;22617;43.690;27.956;2022-07-11T03:46:37;7.03;;;5.80;;
18695;SDS011;22617;43.690;27.956;2022-07-11T03:51:41;7.03;;;5.60;;
18695;SDS011;22617;43.690;27.956;2022-07-11T03:56:47;6.53;;;5.47;;
18695;SDS011;22617;43.690;27.956;2022-07-11T04:01:51;6.53;;;5.55;;
18695;SDS011;22617;43.690;27.956;2022-07-11T04:06:55;9.43;;;5.40;;
18695;SDS011;22617;43.690;27.956;2022-07-11T04:12:01;7.63;;;4.97;;
18695;SDS011;22617;43.690;27.956;2022-07-11T04:17:05;7.37;;;4.73;;
18695;SDS011;22617;43.690;27.956;2022-07-11T04:28:27;6.03;;;4.07;;
18695;SDS011;22617;43.690;27.956;2022-07-11T04:33:31;6.82;;;4.50;;
18695;SDS011;22617;43.690;27.956;2022-07-11T04:38:35;4.65;;;3.50;;
18695;SDS011;22617;43.690;27.956;2022-07-11T04:43:40;4.30;;;3.40;;
18695;SDS011;22617;43.690;27.956;2022-07-11T04:48:46;6.93;;;3.90;;
18695;SDS011;22617;43.690;27.956;2022-07-11T04:53:50;4.67;;;4.10;;
18695;SDS011;22617;43.690;27.956;2022-07-11T04:58:56;5.90;;;4.40;;
18695;SDS011;22617;43.690;27.956;2022-07-11T05:04:01;5.32;;;4.82;;
18695;SDS011;22617;43.690;27.956;2022-07-11T05:09:05;7.32;;;4.78;;
18695;SDS011;22617;43.690;27.956;2022-07-11T05:14:11;3.85;;;3.08;;
18695;SDS011;22617;43.690;27.956;2022-07-11T05:19:15;3.72;;;3.33;;
18695;SDS011;22617;43.690;27.956;2022-07-11T05:24:19;4.43;;;3.40;;
18695;SDS011;22617;43.690;27.956;2022-07-11T05:29:25;4.07;;;3.60;;
18695;SDS011;22617;43.690;27.956;2022-07-11T05:34:29;4.65;;;3.75;;
18695;SDS011;22617;43.690;27.956;2022-07-11T05:39:33;5.10;;;3.65;;
18695;SDS011;22617;43.690;27.956;2022-07-11T05:44:39;6.57;;;4.07;;
18695;SDS011;22617;43.690;27.956;2022-07-11T05:49:43;4.22;;;3.83;;
18695;SDS011;22617;43.690;27.956;2022-07-11T05:54:48;5.45;;;2.90;;
18695;SDS011;22617;43.690;27.956;2022-07-11T05:59:53;3.67;;;3.03;;
18695;SDS011;22617;43.690;27.956;2022-07-11T06:04:57;3.13;;;2.72;;
18695;SDS011;22617;43.690;27.956;2022-07-11T06:10:04;3.95;;;2.65;;
18695;SDS011;22617;43.690;27.956;2022-07-11T06:15:10;5.88;;;3.28;;
18695;SDS011;22617;43.690;27.956;2022-07-11T06:20:14;3.20;;;2.90;;
18695;SDS011;22617;43.690;27.956;2022-07-11T06:25:18;4.32;;;3.05;;
18695;SDS011;22617;43.690;27.956;2022-07-11T06:30:24;3.60;;;2.88;;
18695;SDS011;22617;43.690;27.956;2022-07-11T06:35:28;3.65;;;2.72;;
18695;SDS011;22617;43.690;27.956;2022-07-11T06:40:33;4.38;;;2.53;;
18695;SDS011;22617;43.690;27.956;2022-07-11T06:45:38;3.42;;;2.50;;
18695;SDS011;22617;43.690;27.956;2022-07-11T06:50:46;3.78;;;2.78;;
18695;SDS011;22617;43.690;27.956;2022-07-11T06:55:51;3.10;;;2.80;;
18695;SDS011;22617;43.690;27.956;2022-07-11T07:00:58;5.05;;;2.38;;
18695;SDS011;22617;43.690;27.956;2022-07-11T07:06:03;3.53;;;2.60;;
18695;SDS011;22617;43.690;27.956;2022-07-11T07:11:08;6.45;;;2.60;;
18695;SDS011;22617;43.690;27.956;2022-07-11T07:16:14;2.72;;;2.30;;
18695;SDS011;22617;43.690;27.956;2022-07-11T07:21:19;6.68;;;2.78;;
18695;SDS011;22617;43.690;27.956;2022-07-11T07:26:23;4.20;;;2.33;;
18695;SDS011;22617;43.690;27.956;2022-07-11T07:31:29;7.00;;;2.50;;
18695;SDS011;22617;43.690;27.956;2022-07-11T07:36:33;5.55;;;2.20;;
18695;SDS011;22617;43.690;27.956;2022-07-11T07:41:38;3.65;;;2.70;;
18695;SDS011;22617;43.690;27.956;2022-07-11T07:46:44;3.08;;;2.00;;
18695;SDS011;22617;43.690;27.956;2022-07-11T07:51:48;2.92;;;2.28;;
18695;SDS011;22617;43.690;27.956;2022-07-11T07:56:53;4.50;;;2.65;;
18695;SDS011;22617;43.690;27.956;2022-07-11T08:01:58;10.32;;;2.30;;
18695;SDS011;22617;43.690;27.956;2022-07-11T08:07:03;2.38;;;2.13;;
18695;SDS011;22617;43.690;27.956;2022-07-11T08:12:07;2.72;;;2.10;;
18695;SDS011;22617;43.690;27.956;2022-07-11T08:17:13;3.17;;;2.30;;
18695;SDS011;22617;43.690;27.956;2022-07-11T08:22:17;2.80;;;2.20;;
18695;SDS011;22617;43.690;27.956;2022-07-11T08:27:21;3.22;;;1.92;;
18695;SDS011;22617;43.690;27.956;2022-07-11T08:32:43;4.40;;;2.72;;
18695;SDS011;22617;43.690;27.956;2022-07-11T08:37:49;2.33;;;2.13;;
18695;SDS011;22617;43.690;27.956;2022-07-11T08:42:53;4.50;;;1.98;;
18695;SDS011;22617;43.690;27.956;2022-07-11T08:48:02;2.40;;;1.95;;
18695;SDS011;22617;43.690;27.956;2022-07-11T08:53:06;1.90;;;1.75;;
18695;SDS011;22617;43.690;27.956;2022-07-11T08:58:15;5.60;;;1.90;;
18695;SDS011;22617;43.690;27.956;2022-07-11T09:03:22;2.72;;;1.95;;
18695;SDS011;22617;43.690;27.956;2022-07-11T09:08:27;2.28;;;1.70;;
18695;SDS011;22617;43.690;27.956;2022-07-11T09:13:33;2.40;;;1.67;;
18695;SDS011;22617;43.690;27.956;2022-07-11T09:18:40;2.22;;;1.90;;
18695;SDS011;22617;43.690;27.956;2022-07-11T09:23:44;3.25;;;1.92;;
18695;SDS011;22617;43.690;27.956;2022-07-11T09:29:07;2.20;;;1.83;;
18695;SDS011;22617;43.690;27.956;2022-07-11T09:34:14;13.77;;;2.90;;
18695;SDS011;22617;43.690;27.956;2022-07-11T09:39:20;2.63;;;2.20;;
18695;SDS011;22617;43.690;27.956;2022-07-11T09:44:26;2.47;;;1.52;;
18695;SDS011;22617;43.690;27.956;2022-07-11T09:49:37;2.08;;;1.88;;
18695;SDS011;22617;43.690;27.956;2022-07-11T09:54:51;3.05;;;1.80;;
18695;SDS011;22617;43.690;27.956;2022-07-11T09:59:59;3.75;;;2.03;;
18695;SDS011;22617;43.690;27.956;2022-07-11T10:05:07;2.75;;;1.70;;
18695;SDS011;22617;43.690;27.956;2022-07-11T10:10:12;3.22;;;1.83;;
18695;SDS011;22617;43.690;27.956;2022-07-11T10:15:18;4.07;;;1.80;;
18695;SDS011;22617;43.690;27.956;2022-07-11T10:20:27;4.22;;;1.90;;
18695;SDS011;22617;43.690;27.956;2022-07-11T10:25:37;3.72;;;2.08;;
18695;SDS011;22617;43.690;27.956;2022-07-11T10:30:45;2.75;;;1.67;;
18695;SDS011;22617;43.690;27.956;2022-07-11T10:35:52;5.22;;;1.70;;
18695;SDS011;22617;43.690;27.956;2022-07-11T10:40:58;2.22;;;1.70;;
18695;SDS011;22617;43.690;27.956;2022-07-11T10:46:02;4.68;;;1.70;;
18695;SDS011;22617;43.690;27.956;2022-07-11T10:51:18;4.32;;;1.60;;
18695;SDS011;22617;43.690;27.956;2022-07-11T11:02:10;2.38;;;1.65;;
18695;SDS011;22617;43.690;27.956;2022-07-11T11:18:35;1.88;;;1.60;;
18695;SDS011;22617;43.690;27.956;2022-07-11T11:23:46;4.60;;;1.60;;
18695;SDS011;22617;43.690;27.956;2022-07-11T11:29:10;2.85;;;1.70;;
18695;SDS011;22617;43.690;27.956;2022-07-11T11:34:14;3.95;;;1.60;;
18695;SDS011;22617;43.690;27.956;2022-07-11T11:39:24;8.20;;;2.38;;
18695;SDS011;22617;43.690;27.956;2022-07-11T11:44:30;1.65;;;1.55;;
18695;SDS011;22617;43.690;27.956;2022-07-11T11:49:41;1.65;;;1.55;;
18695;SDS011;22617;43.690;27.956;2022-07-11T11:54:57;2.30;;;1.90;;
18695;SDS011;22617;43.690;27.956;2022-07-11T12:00:03;5.72;;;1.70;;
18695;SDS011;22617;43.690;27.956;2022-07-11T12:05:08;3.05;;;2.00;;
18695;SDS011;22617;43.690;27.956;2022-07-11T12:10:14;4.30;;;1.90;;
18695;SDS011;22617;43.690;27.956;2022-07-11T12:15:28;13.57;;;2.78;;
18695;SDS011;22617;43.690;27.956;2022-07-11T12:20:37;4.82;;;1.92;;
18695;SDS011;22617;43.690;27.956;2022-07-11T12:25:49;3.28;;;1.77;;
18695;SDS011;22617;43.690;27.956;2022-07-11T12:30:55;3.50;;;1.80;;
18695;SDS011;22617;43.690;27.956;2022-07-11T12:36:01;2.53;;;2.00;;
18695;SDS011;22617;43.690;27.956;2022-07-11T12:41:08;3.42;;;1.80;;
18695;SDS011;22617;43.690;27.956;2022-07-11T12:46:12;2.13;;;1.65;;
18695;SDS011;22617;43.690;27.956;2022-07-11T12:51:25;5.35;;;2.30;;
18695;SDS011;22617;43.690;27.956;2022-07-11T12:56:32;3.35;;;2.28;;
18695;SDS011;22617;43.690;27.956;2022-07-11T13:01:52;2.95;;;2.10;;
18695;SDS011;22617;43.690;27.956;2022-07-11T13:06:58;4.35;;;2.40;;
18695;SDS011;22617;43.690;27.956;2022-07-11T13:12:21;3.20;;;2.50;;
18695;SDS011;22617;43.690;27.956;2022-07-11T13:17:25;2.70;;;2.50;;
18695;SDS011;22617;43.690;27.956;2022-07-11T13:22:30;2.47;;;2.28;;
18695;SDS011;22617;43.690;27.956;2022-07-11T13:27:38;4.35;;;2.47;;
18695;SDS011;22617;43.690;27.956;2022-07-11T13:32:44;3.85;;;2.60;;
18695;SDS011;22617;43.690;27.956;2022-07-11T13:37:49;4.07;;;2.40;;
18695;SDS011;22617;43.690;27.956;2022-07-11T13:42:56;2.28;;;2.08;;
18695;SDS011;22617;43.690;27.956;2022-07-11T13:48:01;3.10;;;2.10;;
18695;SDS011;22617;43.690;27.956;2022-07-11T13:53:05;2.10;;;1.90;;
18695;SDS011;22617;43.690;27.956;2022-07-11T13:58:11;2.38;;;1.90;;
18695;SDS011;22617;43.690;27.956;2022-07-11T14:03:32;3.38;;;1.83;;
18695;SDS011;22617;43.690;27.956;2022-07-11T14:08:37;3.35;;;2.15;;
18695;SDS011;22617;43.690;27.956;2022-07-11T14:13:42;5.45;;;2.33;;
18695;SDS011;22617;43.690;27.956;2022-07-11T14:18:51;3.10;;;1.98;;
18695;SDS011;22617;43.690;27.956;2022-07-11T14:23:56;1.50;;;1.40;;
18695;SDS011;22617;43.690;27.956;2022-07-11T14:29:03;2.00;;;1.35;;
18695;SDS011;22617;43.690;27.956;2022-07-11T14:34:08;3.10;;;1.30;;
18695;SDS011;22617;43.690;27.956;2022-07-11T14:39:12;1.98;;;1.30;;
18695;SDS011;22617;43.690;27.956;2022-07-11T14:44:18;3.42;;;1.30;;
18695;SDS011;22617;43.690;27.956;2022-07-11T14:49:22;5.63;;;1.40;;
18695;SDS011;22617;43.690;27.956;2022-07-11T14:54:27;9.77;;;2.33;;
18695;SDS011;22617;43.690;27.956;2022-07-11T14:59:33;4.10;;;1.45;;
18695;SDS011;22617;43.690;27.956;2022-07-11T15:04:38;1.90;;;1.35;;
18695;SDS011;22617;43.690;27.956;2022-07-11T15:09:48;2.75;;;1.40;;
18695;SDS011;22617;43.690;27.956;2022-07-11T15:15:12;4.38;;;1.17;;
18695;SDS011;22617;43.690;27.956;2022-07-11T15:20:16;3.28;;;1.50;;
18695;SDS011;22617;43.690;27.956;2022-07-11T15:25:21;3.72;;;1.58;;
18695;SDS011;22617;43.690;27.956;2022-07-11T15:30:26;2.72;;;1.50;;
18695;SDS011;22617;43.690;27.956;2022-07-11T15:35:31;5.97;;;1.85;;
18695;SDS011;22617;43.690;27.956;2022-07-11T15:40:35;3.10;;;1.60;;
18695;SDS011;22617;43.690;27.956;2022-07-11T15:45:41;1.60;;;1.50;;
18695;SDS011;22617;43.690;27.956;2022-07-11T15:50:46;3.83;;;1.48;;
18695;SDS011;22617;43.690;27.956;2022-07-11T15:55:51;4.28;;;1.48;;
18695;SDS011;22617;43.690;27.956;2022-07-11T16:00:58;3.03;;;1.58;;
18695;SDS011;22617;43.690;27.956;2022-07-11T16:06:03;1.80;;;1.35;;
18695;SDS011;22617;43.690;27.956;2022-07-11T16:11:08;2.03;;;1.40;;
18695;SDS011;22617;43.690;27.956;2022-07-11T16:16:14;2.50;;;1.42;;
18695;SDS011;22617;43.690;27.956;2022-07-11T16:21:19;3.72;;;1.30;;
18695;SDS011;22617;43.690;27.956;2022-07-11T16:26:23;2.00;;;1.17;;
18695;SDS011;22617;43.690;27.956;2022-07-11T16:31:29;3.58;;;1.30;;
18695;SDS011;22617;43.690;27.956;2022-07-11T16:36:33;1.67;;;1.17;;
18695;SDS011;22617;43.690;27.956;2022-07-11T16:41:38;2.35;;;0.93;;
18695;SDS011;22617;43.690;27.956;2022-07-11T16:47:02;2.15;;;1.20;;
18695;SDS011;22617;43.690;27.956;2022-07-11T16:52:08;1.42;;;1.02;;
18695;SDS011;22617;43.690;27.956;2022-07-11T16:57:12;3.38;;;1.25;;
18695;SDS011;22617;43.690;27.956;2022-07-11T17:02:18;1.10;;;1.00;;
18695;SDS011;22617;43.690;27.956;2022-07-11T17:07:24;2.15;;;1.08;;
18695;SDS011;22617;43.690;27.956;2022-07-11T17:12:29;6.45;;;0.98;;
18695;SDS011;22617;43.690;27.956;2022-07-11T17:17:34;2.88;;;1.10;;
18695;SDS011;22617;43.690;27.956;2022-07-11T17:22:39;2.08;;;0.90;;
18695;SDS011;22617;43.690;27.956;2022-07-11T17:27:44;2.00;;;1.00;;
18695;SDS011;22617;43.690;27.956;2022-07-11T17:32:50;3.47;;;1.13;;
18695;SDS011;22617;43.690;27.956;2022-07-11T17:37:54;6.65;;;1.67;;
18695;SDS011;22617;43.690;27.956;2022-07-11T17:42:59;4.93;;;1.85;;
18695;SDS011;22617;43.690;27.956;2022-07-11T17:48:06;3.70;;;1.70;;
18695;SDS011;22617;43.690;27.956;2022-07-11T17:53:11;5.75;;;1.90;;
18695;SDS011;22617;43.690;27.956;2022-07-11T17:58:16;4.45;;;1.80;;
18695;SDS011;22617;43.690;27.956;2022-07-11T18:03:22;5.95;;;2.08;;
18695;SDS011;22617;43.690;27.956;2022-07-11T18:08:26;2.90;;;2.22;;
18695;SDS011;22617;43.690;27.956;2022-07-11T18:13:31;6.72;;;1.90;;
18695;SDS011;22617;43.690;27.956;2022-07-11T18:18:39;2.30;;;2.10;;
18695;SDS011;22617;43.690;27.956;2022-07-11T18:23:44;4.50;;;2.10;;
18695;SDS011;22617;43.690;27.956;2022-07-11T18:28:49;3.97;;;2.00;;
18695;SDS011;22617;43.690;27.956;2022-07-11T18:33:55;4.70;;;2.00;;
18695;SDS011;22617;43.690;27.956;2022-07-11T18:39:00;5.28;;;2.10;;
18695;SDS011;22617;43.690;27.956;2022-07-11T18:44:21;6.35;;;2.33;;
18695;SDS011;22617;43.690;27.956;2022-07-11T18:49:27;10.52;;;3.00;;
18695;SDS011;22617;43.690;27.956;2022-07-11T18:54:31;4.03;;;2.10;;
18695;SDS011;22617;43.690;27.956;2022-07-11T18:59:36;3.05;;;2.17;;
18695;SDS011;22617;43.690;27.956;2022-07-11T19:04:41;4.05;;;2.15;;
18695;SDS011;22617;43.690;27.956;2022-07-11T19:09:45;5.50;;;2.20;;
18695;SDS011;22617;43.690;27.956;2022-07-11T19:14:50;4.93;;;2.05;;
18695;SDS011;22617;43.690;27.956;2022-07-11T19:19:56;5.43;;;2.30;;
18695;SDS011;22617;43.690;27.956;2022-07-11T19:25:00;4.00;;;2.30;;
18695;SDS011;22617;43.690;27.956;2022-07-11T19:30:04;5.10;;;2.42;;
18695;SDS011;22617;43.690;27.956;2022-07-11T19:35:11;5.20;;;2.28;;
18695;SDS011;22617;43.690;27.956;2022-07-11T19:40:15;3.75;;;2.00;;
18695;SDS011;22617;43.690;27.956;2022-07-11T19:45:19;2.17;;;1.92;;
18695;SDS011;22617;43.690;27.956;2022-07-11T19:50:25;5.13;;;2.45;;
18695;SDS011;22617;43.690;27.956;2022-07-11T19:55:29;6.97;;;2.55;;
18695;SDS011;22617;43.690;27.956;2022-07-11T20:00:51;4.43;;;2.10;;
18695;SDS011;22617;43.690;27.956;2022-07-11T20:05:58;4.43;;;2.45;;
18695;SDS011;22617;43.690;27.956;2022-07-11T20:11:03;3.45;;;2.38;;
18695;SDS011;22617;43.690;27.956;2022-07-11T20:16:07;2.85;;;2.00;;
18695;SDS011;22617;43.690;27.956;2022-07-11T20:21:14;3.28;;;2.30;;
18695;SDS011;22617;43.690;27.956;2022-07-11T20:26:18;3.60;;;2.47;;
18695;SDS011;22617;43.690;27.956;2022-07-11T20:31:23;4.90;;;2.60;;
18695;SDS011;22617;43.690;27.956;2022-07-11T20:36:29;6.28;;;2.67;;
18695;SDS011;22617;43.690;27.956;2022-07-11T20:41:33;3.38;;;2.72;;
18695;SDS011;22617;43.690;27.956;2022-07-11T20:46:38;3.40;;;2.10;;
18695;SDS011;22617;43.690;27.956;2022-07-11T20:51:44;2.92;;;2.30;;
18695;SDS011;22617;43.690;27.956;2022-07-11T20:56:48;4.55;;;2.50;;
18695;SDS011;22617;43.690;27.956;2022-07-11T21:01:53;4.22;;;2.97;;
18695;SDS011;22617;43.690;27.956;2022-07-11T21:06:59;3.60;;;2.40;;
18695;SDS011;22617;43.690;27.956;2022-07-11T21:12:03;3.40;;;2.70;;
18695;SDS011;22617;43.690;27.956;2022-07-11T21:17:08;3.00;;;2.50;;
18695;SDS011;22617;43.690;27.956;2022-07-11T21:22:13;3.97;;;2.55;;
18695;SDS011;22617;43.690;27.956;2022-07-11T21:27:17;5.55;;;2.47;;
18695;SDS011;22617;43.690;27.956;2022-07-11T21:32:22;3.15;;;2.80;;
18695;SDS011;22617;43.690;27.956;2022-07-11T21:37:28;6.20;;;3.10;;
18695;SDS011;22617;43.690;27.956;2022-07-11T21:42:34;6.20;;;2.90;;
18695;SDS011;22617;43.690;27.956;2022-07-11T21:47:38;6.65;;;2.78;;
18695;SDS011;22617;43.690;27.956;2022-07-11T21:52:43;2.40;;;2.20;;
18695;SDS011;22617;43.690;27.956;2022-07-11T21:57:47;8.63;;;3.13;;
18695;SDS011;22617;43.690;27.956;2022-07-11T22:02:52;7.95;;;3.40;;
18695;SDS011;22617;43.690;27.956;2022-07-11T22:07:58;7.82;;;3.47;;
18695;SDS011;22617;43.690;27.956;2022-07-11T22:13:02;4.07;;;2.90;;
18695;SDS011;22617;43.690;27.956;2022-07-11T22:18:07;3.65;;;2.80;;
18695;SDS011;22617;43.690;27.956;2022-07-11T22:23:12;6.60;;;2.90;;
18695;SDS011;22617;43.690;27.956;2022-07-11T22:28:17;3.80;;;2.55;;
18695;SDS011;22617;43.690;27.956;2022-07-11T22:33:21;4.20;;;2.40;;
18695;SDS011;22617;43.690;27.956;2022-07-11T22:38:27;5.03;;;2.80;;
18695;SDS011;22617;43.690;27.956;2022-07-11T22:43:31;3.35;;;2.40;;
18695;SDS011;22617;43.690;27.956;2022-07-11T22:48:35;3.22;;;2.13;;
18695;SDS011;22617;43.690;27.956;2022-07-11T22:53:40;5.22;;;2.28;;
18695;SDS011;22617;43.690;27.956;2022-07-11T22:58:45;3.07;;;2.40;;
18695;SDS011;22617;43.690;27.956;2022-07-11T23:03:49;2.60;;;2.30;;
18695;SDS011;22617;43.690;27.956;2022-07-11T23:08:55;4.00;;;2.08;;
18695;SDS011;22617;43.690;27.956;2022-07-11T23:14:00;3.43;;;1.97;;
18695;SDS011;22617;43.690;27.956;2022-07-11T23:19:04;4.25;;;2.13;;
18695;SDS011;22617;43.690;27.956;2022-07-11T23:24:09;4.32;;;2.10;;
18695;SDS011;22617;43.690;27.956;2022-07-11T23:29:13;3.95;;;2.20;;
18695;SDS011;22617;43.690;27.956;2022-07-11T23:34:17;3.63;;;2.30;;
18695;SDS011;22617;43.690;27.956;2022-07-11T23:39:23;2.83;;;2.17;;
18695;SDS011;22617;43.690;27.956;2022-07-11T23:44:26;3.05;;;1.90;;
18695;SDS011;22617;43.690;27.956;2022-07-11T23:49:31;2.38;;;2.05;;
18695;SDS011;22617;43.690;27.956;2022-07-11T23:54:36;2.40;;;1.95;;
18695;SDS011;22617;43.690;27.956;2022-07-11T23:59:40;3.15;;;2.00;;
